sensor_id;sensor_type;location;lat;lon;timestamp;temperature;humidity
54788;DHT22;59598;48.112;16.280;2023-08-01T00:00:11;18.40;99.90
54788;DHT22;59598;48.112;16.280;2023-08-01T00:02:43;18.40;99.90
54788;DHT22;59598;48.112;16.280;2023-08-01T00:05:17;18.40;99.90
54788;DHT22;59598;48.112;16.280;2023-08-01T00:07:52;18.30;99.90
54788;DHT22;59598;48.112;16.280;2023-08-01T00:10:23;18.30;99.90
54788;DHT22;59598;48.112;16.280;2023-08-01T00:12:57;18.10;99.90
54788;DHT22;59598;48.112;16.280;2023-08-01T00:15:28;18.00;99.90
54788;DHT22;59598;48.112;16.280;2023-08-01T00:18:00;18.00;99.90
54788;DHT22;59598;48.112;16.280;2023-08-01T00:20:33;18.00;99.90
54788;DHT22;59598;48.112;16.280;2023-08-01T00:23:07;17.90;99.90
54788;DHT22;59598;48.112;16.280;2023-08-01T00:25:43;17.80;99.90
54788;DHT22;59598;48.112;16.280;2023-08-01T00:28:17;17.70;99.90
54788;DHT22;59598;48.112;16.280;2023-08-01T00:30:48;17.70;99.90
54788;DHT22;59598;48.112;16.280;2023-08-01T00:33:20;17.70;99.90
54788;DHT22;59598;48.112;16.280;2023-08-01T00:35:55;17.70;99.90
54788;DHT22;59598;48.112;16.280;2023-08-01T00:38:29;17.70;99.90
54788;DHT22;59598;48.112;16.280;2023-08-01T00:41:03;17.60;99.90
54788;DHT22;59598;48.112;16.280;2023-08-01T00:43:34;17.50;99.90
54788;DHT22;59598;48.112;16.280;2023-08-01T00:46:06;17.50;99.90
54788;DHT22;59598;48.112;16.280;2023-08-01T00:48:43;17.50;99.90
54788;DHT22;59598;48.112;16.280;2023-08-01T00:51:15;17.50;99.90
54788;DHT22;59598;48.112;16.280;2023-08-01T00:53:46;17.40;99.90
54788;DHT22;59598;48.112;16.280;2023-08-01T00:56:18;17.40;99.90
54788;DHT22;59598;48.112;16.280;2023-08-01T00:58:49;17.50;99.90
54788;DHT22;59598;48.112;16.280;2023-08-01T01:01:25;17.50;99.90
54788;DHT22;59598;48.112;16.280;2023-08-01T01:04:00;17.60;99.90
54788;DHT22;59598;48.112;16.280;2023-08-01T01:06:32;17.60;99.90
54788;DHT22;59598;48.112;16.280;2023-08-01T01:09:18;17.70;99.90
54788;DHT22;59598;48.112;16.280;2023-08-01T01:11:50;17.90;99.90
54788;DHT22;59598;48.112;16.280;2023-08-01T01:14:21;17.80;99.90
54788;DHT22;59598;48.112;16.280;2023-08-01T01:16:52;17.80;99.90
54788;DHT22;59598;48.112;16.280;2023-08-01T01:19:24;17.70;99.90
54788;DHT22;59598;48.112;16.280;2023-08-01T01:22:07;17.70;99.90
54788;DHT22;59598;48.112;16.280;2023-08-01T01:24:40;17.70;99.90
54788;DHT22;59598;48.112;16.280;2023-08-01T01:27:16;17.70;99.90
54788;DHT22;59598;48.112;16.280;2023-08-01T01:29:54;17.90;75.50
54788;DHT22;59598;48.112;16.280;2023-08-01T01:32:29;18.10;87.50
54788;DHT22;59598;48.112;16.280;2023-08-01T01:38:28;18.30;1.00
54788;DHT22;59598;48.112;16.280;2023-08-01T01:41:00;18.20;45.70
54788;DHT22;59598;48.112;16.280;2023-08-01T01:43:34;18.10;98.80
54788;DHT22;59598;48.112;16.280;2023-08-01T01:46:08;18.10;49.20
54788;DHT22;59598;48.112;16.280;2023-08-01T01:48:40;18.00;94.10
54788;DHT22;59598;48.112;16.280;2023-08-01T01:51:13;18.00;89.10
54788;DHT22;59598;48.112;16.280;2023-08-01T01:53:45;18.10;78.30
54788;DHT22;59598;48.112;16.280;2023-08-01T01:56:16;18.10;74.60
54788;DHT22;59598;48.112;16.280;2023-08-01T01:58:47;18.20;79.00
54788;DHT22;59598;48.112;16.280;2023-08-01T02:01:19;18.30;96.70
54788;DHT22;59598;48.112;16.280;2023-08-01T02:03:51;18.40;1.00
54788;DHT22;59598;48.112;16.280;2023-08-01T02:09:51;18.40;1.00
54788;DHT22;59598;48.112;16.280;2023-08-01T02:12:23;18.50;1.00
54788;DHT22;59598;48.112;16.280;2023-08-01T02:18:22;18.40;1.00
54788;DHT22;59598;48.112;16.280;2023-08-01T02:20:57;18.40;1.00
54788;DHT22;59598;48.112;16.280;2023-08-01T02:23:29;18.40;1.00
54788;DHT22;59598;48.112;16.280;2023-08-01T02:29:28;18.50;1.00
54788;DHT22;59598;48.112;16.280;2023-08-01T02:31:59;18.50;1.00
54788;DHT22;59598;48.112;16.280;2023-08-01T02:34:33;18.50;1.00
54788;DHT22;59598;48.112;16.280;2023-08-01T02:37:05;18.60;1.00
54788;DHT22;59598;48.112;16.280;2023-08-01T02:39:36;18.50;1.00
54788;DHT22;59598;48.112;16.280;2023-08-01T02:42:10;18.50;1.00
54788;DHT22;59598;48.112;16.280;2023-08-01T02:44:41;18.50;1.00
54788;DHT22;59598;48.112;16.280;2023-08-01T02:47:13;18.60;1.00
54788;DHT22;59598;48.112;16.280;2023-08-01T02:49:44;18.50;1.00
54788;DHT22;59598;48.112;16.280;2023-08-01T02:52:17;18.50;1.00
54788;DHT22;59598;48.112;16.280;2023-08-01T02:54:49;18.60;1.00
54788;DHT22;59598;48.112;16.280;2023-08-01T02:57:20;18.60;1.00
54788;DHT22;59598;48.112;16.280;2023-08-01T02:59:54;18.60;1.00
54788;DHT22;59598;48.112;16.280;2023-08-01T03:02:25;18.70;1.00
54788;DHT22;59598;48.112;16.280;2023-08-01T03:08:26;18.60;1.00
54788;DHT22;59598;48.112;16.280;2023-08-01T03:10:57;18.60;1.00
54788;DHT22;59598;48.112;16.280;2023-08-01T03:13:29;18.50;1.00
54788;DHT22;59598;48.112;16.280;2023-08-01T03:16:01;18.50;1.00
54788;DHT22;59598;48.112;16.280;2023-08-01T03:18:32;18.50;1.00
54788;DHT22;59598;48.112;16.280;2023-08-01T03:21:06;18.50;1.00
54788;DHT22;59598;48.112;16.280;2023-08-01T03:23:40;18.60;1.00
54788;DHT22;59598;48.112;16.280;2023-08-01T03:26:11;18.60;1.00
54788;DHT22;59598;48.112;16.280;2023-08-01T03:28:43;18.50;1.00
54788;DHT22;59598;48.112;16.280;2023-08-01T03:31:14;18.50;1.00
54788;DHT22;59598;48.112;16.280;2023-08-01T03:33:47;18.50;1.00
54788;DHT22;59598;48.112;16.280;2023-08-01T03:39:30;18.50;1.00
54788;DHT22;59598;48.112;16.280;2023-08-01T03:42:04;18.50;1.00
54788;DHT22;59598;48.112;16.280;2023-08-01T03:44:38;18.50;1.00
54788;DHT22;59598;48.112;16.280;2023-08-01T03:47:09;18.60;1.00
54788;DHT22;59598;48.112;16.280;2023-08-01T03:49:45;18.60;1.00
54788;DHT22;59598;48.112;16.280;2023-08-01T03:52:21;18.70;1.00
54788;DHT22;59598;48.112;16.280;2023-08-01T03:54:54;18.70;1.00
54788;DHT22;59598;48.112;16.280;2023-08-01T03:57:29;18.70;1.00
54788;DHT22;59598;48.112;16.280;2023-08-01T04:00:10;18.80;1.00
54788;DHT22;59598;48.112;16.280;2023-08-01T04:02:47;18.80;1.00
54788;DHT22;59598;48.112;16.280;2023-08-01T04:05:20;18.90;5.20
54788;DHT22;59598;48.112;16.280;2023-08-01T04:07:51;18.90;1.00
54788;DHT22;59598;48.112;16.280;2023-08-01T04:10:28;18.90;1.00
54788;DHT22;59598;48.112;16.280;2023-08-01T04:13:02;18.80;47.60
54788;DHT22;59598;48.112;16.280;2023-08-01T04:15:34;18.70;47.20
54788;DHT22;59598;48.112;16.280;2023-08-01T04:18:05;18.60;99.90
54788;DHT22;59598;48.112;16.280;2023-08-01T04:20:39;18.50;99.90
54788;DHT22;59598;48.112;16.280;2023-08-01T04:23:10;18.50;99.90
54788;DHT22;59598;48.112;16.280;2023-08-01T04:25:44;18.50;99.90
54788;DHT22;59598;48.112;16.280;2023-08-01T04:28:16;18.50;99.90
54788;DHT22;59598;48.112;16.280;2023-08-01T04:30:53;18.50;99.90
54788;DHT22;59598;48.112;16.280;2023-08-01T04:33:24;18.50;99.90
54788;DHT22;59598;48.112;16.280;2023-08-01T04:35:56;18.50;99.90
54788;DHT22;59598;48.112;16.280;2023-08-01T04:38:33;18.60;99.90
54788;DHT22;59598;48.112;16.280;2023-08-01T04:41:08;18.70;99.90
54788;DHT22;59598;48.112;16.280;2023-08-01T04:43:39;18.70;99.90
54788;DHT22;59598;48.112;16.280;2023-08-01T04:46:13;18.80;99.90
54788;DHT22;59598;48.112;16.280;2023-08-01T04:48:47;18.80;99.90
54788;DHT22;59598;48.112;16.280;2023-08-01T04:51:20;19.00;40.40
54788;DHT22;59598;48.112;16.280;2023-08-01T04:53:52;19.10;1.00
54788;DHT22;59598;48.112;16.280;2023-08-01T04:56:25;19.30;1.00
54788;DHT22;59598;48.112;16.280;2023-08-01T04:58:56;19.50;1.00
54788;DHT22;59598;48.112;16.280;2023-08-01T05:01:33;19.60;1.00
54788;DHT22;59598;48.112;16.280;2023-08-01T05:04:04;19.70;1.00
54788;DHT22;59598;48.112;16.280;2023-08-01T05:06:41;19.80;1.00
54788;DHT22;59598;48.112;16.280;2023-08-01T05:09:12;19.90;1.00
54788;DHT22;59598;48.112;16.280;2023-08-01T05:11:46;20.00;1.00
54788;DHT22;59598;48.112;16.280;2023-08-01T05:14:20;20.10;99.90
54788;DHT22;59598;48.112;16.280;2023-08-01T05:16:56;20.20;1.00
54788;DHT22;59598;48.112;16.280;2023-08-01T05:19:27;20.40;99.90
54788;DHT22;59598;48.112;16.280;2023-08-01T05:21:58;20.50;99.90
54788;DHT22;59598;48.112;16.280;2023-08-01T05:24:32;20.50;99.90
54788;DHT22;59598;48.112;16.280;2023-08-01T05:27:04;20.50;99.90
54788;DHT22;59598;48.112;16.280;2023-08-01T05:29:35;20.40;99.90
54788;DHT22;59598;48.112;16.280;2023-08-01T05:32:09;20.40;99.90
54788;DHT22;59598;48.112;16.280;2023-08-01T05:34:41;20.50;99.90
54788;DHT22;59598;48.112;16.280;2023-08-01T05:37:12;20.60;99.90
54788;DHT22;59598;48.112;16.280;2023-08-01T05:39:43;20.80;99.90
54788;DHT22;59598;48.112;16.280;2023-08-01T05:42:17;20.80;1.00
54788;DHT22;59598;48.112;16.280;2023-08-01T05:44:48;20.90;1.00
54788;DHT22;59598;48.112;16.280;2023-08-01T05:47:20;21.00;1.00
54788;DHT22;59598;48.112;16.280;2023-08-01T05:49:53;21.20;1.00
54788;DHT22;59598;48.112;16.280;2023-08-01T05:52:29;21.30;99.90
54788;DHT22;59598;48.112;16.280;2023-08-01T05:55:01;21.50;6.20
54788;DHT22;59598;48.112;16.280;2023-08-01T05:57:32;21.70;1.00
54788;DHT22;59598;48.112;16.280;2023-08-01T06:00:04;21.90;1.00
54788;DHT22;59598;48.112;16.280;2023-08-01T06:02:37;22.10;1.00
54788;DHT22;59598;48.112;16.280;2023-08-01T06:05:14;22.20;99.90
54788;DHT22;59598;48.112;16.280;2023-08-01T06:07:53;22.50;99.90
54788;DHT22;59598;48.112;16.280;2023-08-01T06:10:27;22.60;99.90
54788;DHT22;59598;48.112;16.280;2023-08-01T06:12:58;22.70;27.10
54788;DHT22;59598;48.112;16.280;2023-08-01T06:15:32;22.80;1.00
54788;DHT22;59598;48.112;16.280;2023-08-01T06:18:03;22.70;1.00
54788;DHT22;59598;48.112;16.280;2023-08-01T06:20:37;22.70;1.00
54788;DHT22;59598;48.112;16.280;2023-08-01T06:23:08;22.60;1.00
54788;DHT22;59598;48.112;16.280;2023-08-01T06:25:42;22.50;1.00
54788;DHT22;59598;48.112;16.280;2023-08-01T06:28:16;22.50;1.00
54788;DHT22;59598;48.112;16.280;2023-08-01T06:30:50;22.50;1.00
54788;DHT22;59598;48.112;16.280;2023-08-01T06:33:24;22.40;1.00
54788;DHT22;59598;48.112;16.280;2023-08-01T06:35:57;22.30;1.00
54788;DHT22;59598;48.112;16.280;2023-08-01T06:38:32;22.30;1.00
54788;DHT22;59598;48.112;16.280;2023-08-01T06:41:04;22.30;1.00
54788;DHT22;59598;48.112;16.280;2023-08-01T06:43:35;22.10;1.00
54788;DHT22;59598;48.112;16.280;2023-08-01T06:46:09;22.00;1.00
54788;DHT22;59598;48.112;16.280;2023-08-01T06:48:43;21.90;1.00
54788;DHT22;59598;48.112;16.280;2023-08-01T06:51:16;21.70;99.90
54788;DHT22;59598;48.112;16.280;2023-08-01T06:53:48;21.60;99.90
54788;DHT22;59598;48.112;16.280;2023-08-01T06:56:19;21.60;1.00
54788;DHT22;59598;48.112;16.280;2023-08-01T06:58:50;21.60;1.00
54788;DHT22;59598;48.112;16.280;2023-08-01T07:01:21;21.60;1.00
54788;DHT22;59598;48.112;16.280;2023-08-01T07:03:53;21.80;1.00
54788;DHT22;59598;48.112;16.280;2023-08-01T07:06:24;22.10;99.90
54788;DHT22;59598;48.112;16.280;2023-08-01T07:09:00;22.40;1.00
54788;DHT22;59598;48.112;16.280;2023-08-01T07:11:32;22.70;1.00
54788;DHT22;59598;48.112;16.280;2023-08-01T07:14:03;23.00;1.00
54788;DHT22;59598;48.112;16.280;2023-08-01T07:16:37;22.80;1.00
54788;DHT22;59598;48.112;16.280;2023-08-01T07:19:09;22.60;1.00
54788;DHT22;59598;48.112;16.280;2023-08-01T07:21:40;22.60;1.00
54788;DHT22;59598;48.112;16.280;2023-08-01T07:24:12;22.50;1.00
54788;DHT22;59598;48.112;16.280;2023-08-01T07:26:45;22.20;1.00
54788;DHT22;59598;48.112;16.280;2023-08-01T07:29:18;22.00;1.00
54788;DHT22;59598;48.112;16.280;2023-08-01T07:31:50;22.00;1.00
54788;DHT22;59598;48.112;16.280;2023-08-01T07:34:22;22.10;1.00
54788;DHT22;59598;48.112;16.280;2023-08-01T07:36:55;22.30;1.00
54788;DHT22;59598;48.112;16.280;2023-08-01T07:39:27;22.40;99.90
54788;DHT22;59598;48.112;16.280;2023-08-01T07:41:58;22.30;1.00
54788;DHT22;59598;48.112;16.280;2023-08-01T07:44:30;22.40;1.00
54788;DHT22;59598;48.112;16.280;2023-08-01T07:47:02;22.50;1.00
54788;DHT22;59598;48.112;16.280;2023-08-01T07:49:38;22.60;1.00
54788;DHT22;59598;48.112;16.280;2023-08-01T07:52:12;22.70;99.90
54788;DHT22;59598;48.112;16.280;2023-08-01T07:54:46;22.40;99.90
54788;DHT22;59598;48.112;16.280;2023-08-01T07:57:24;22.20;1.00
54788;DHT22;59598;48.112;16.280;2023-08-01T07:59:58;22.20;1.00
54788;DHT22;59598;48.112;16.280;2023-08-01T08:02:32;22.30;1.00
54788;DHT22;59598;48.112;16.280;2023-08-01T08:05:04;22.40;1.00
54788;DHT22;59598;48.112;16.280;2023-08-01T08:07:41;22.40;78.80
54788;DHT22;59598;48.112;16.280;2023-08-01T08:10:18;22.40;46.00
54788;DHT22;59598;48.112;16.280;2023-08-01T08:12:51;22.50;1.00
54788;DHT22;59598;48.112;16.280;2023-08-01T08:15:23;22.30;15.30
54788;DHT22;59598;48.112;16.280;2023-08-01T08:17:55;22.30;99.90
54788;DHT22;59598;48.112;16.280;2023-08-01T08:20:34;22.20;99.90
54788;DHT22;59598;48.112;16.280;2023-08-01T08:23:12;22.30;1.00
54788;DHT22;59598;48.112;16.280;2023-08-01T08:25:46;22.30;1.00
54788;DHT22;59598;48.112;16.280;2023-08-01T08:28:31;22.30;99.90
54788;DHT22;59598;48.112;16.280;2023-08-01T08:31:05;22.40;21.10
54788;DHT22;59598;48.112;16.280;2023-08-01T08:33:37;22.30;45.40
54788;DHT22;59598;48.112;16.280;2023-08-01T08:36:10;22.40;1.00
54788;DHT22;59598;48.112;16.280;2023-08-01T08:38:42;22.20;1.00
54788;DHT22;59598;48.112;16.280;2023-08-01T08:41:26;22.20;1.00
54788;DHT22;59598;48.112;16.280;2023-08-01T08:44:03;22.20;1.00
54788;DHT22;59598;48.112;16.280;2023-08-01T08:46:42;22.40;1.00
54788;DHT22;59598;48.112;16.280;2023-08-01T08:49:14;22.50;1.00
54788;DHT22;59598;48.112;16.280;2023-08-01T08:51:50;22.60;99.90
54788;DHT22;59598;48.112;16.280;2023-08-01T08:54:21;22.60;20.40
54788;DHT22;59598;48.112;16.280;2023-08-01T08:56:54;22.80;1.00
54788;DHT22;59598;48.112;16.280;2023-08-01T08:59:27;23.00;1.00
54788;DHT22;59598;48.112;16.280;2023-08-01T09:02:02;23.40;1.00
54788;DHT22;59598;48.112;16.280;2023-08-01T09:04:34;23.60;1.00
54788;DHT22;59598;48.112;16.280;2023-08-01T09:07:09;23.70;1.00
54788;DHT22;59598;48.112;16.280;2023-08-01T09:09:42;23.80;1.00
54788;DHT22;59598;48.112;16.280;2023-08-01T09:12:16;23.90;1.00
54788;DHT22;59598;48.112;16.280;2023-08-01T09:14:52;23.80;1.00
54788;DHT22;59598;48.112;16.280;2023-08-01T09:17:27;23.80;1.00
54788;DHT22;59598;48.112;16.280;2023-08-01T09:20:07;23.70;1.00
54788;DHT22;59598;48.112;16.280;2023-08-01T09:22:44;23.50;1.00
54788;DHT22;59598;48.112;16.280;2023-08-01T09:28:45;23.30;1.00
54788;DHT22;59598;48.112;16.280;2023-08-01T09:31:31;23.10;1.00
54788;DHT22;59598;48.112;16.280;2023-08-01T09:34:25;22.90;99.90
54788;DHT22;59598;48.112;16.280;2023-08-01T09:37:01;22.70;99.90
54788;DHT22;59598;48.112;16.280;2023-08-01T09:39:33;22.30;1.00
54788;DHT22;59598;48.112;16.280;2023-08-01T09:42:05;22.00;1.00
54788;DHT22;59598;48.112;16.280;2023-08-01T09:44:37;21.80;1.00
54788;DHT22;59598;48.112;16.280;2023-08-01T09:47:11;21.60;1.00
54788;DHT22;59598;48.112;16.280;2023-08-01T09:49:49;21.40;1.00
54788;DHT22;59598;48.112;16.280;2023-08-01T09:52:28;21.30;99.90
54788;DHT22;59598;48.112;16.280;2023-08-01T09:55:01;21.20;99.90
54788;DHT22;59598;48.112;16.280;2023-08-01T09:57:39;21.10;99.90
54788;DHT22;59598;48.112;16.280;2023-08-01T10:00:15;20.90;99.90
54788;DHT22;59598;48.112;16.280;2023-08-01T10:02:47;20.90;99.90
54788;DHT22;59598;48.112;16.280;2023-08-01T10:05:20;20.70;99.90
54788;DHT22;59598;48.112;16.280;2023-08-01T10:07:53;20.60;99.90
54788;DHT22;59598;48.112;16.280;2023-08-01T10:10:26;20.30;99.90
54788;DHT22;59598;48.112;16.280;2023-08-01T10:13:06;20.10;99.90
54788;DHT22;59598;48.112;16.280;2023-08-01T10:15:38;19.80;99.90
54788;DHT22;59598;48.112;16.280;2023-08-01T10:18:13;19.70;99.90
54788;DHT22;59598;48.112;16.280;2023-08-01T10:20:45;19.80;99.90
54788;DHT22;59598;48.112;16.280;2023-08-01T10:23:17;19.90;99.90
54788;DHT22;59598;48.112;16.280;2023-08-01T10:25:49;19.90;99.90
54788;DHT22;59598;48.112;16.280;2023-08-01T10:28:35;19.80;99.90
54788;DHT22;59598;48.112;16.280;2023-08-01T10:31:14;19.90;99.90
54788;DHT22;59598;48.112;16.280;2023-08-01T10:33:50;20.00;99.90
54788;DHT22;59598;48.112;16.280;2023-08-01T10:36:24;20.00;99.90
54788;DHT22;59598;48.112;16.280;2023-08-01T10:38:59;20.10;99.90
54788;DHT22;59598;48.112;16.280;2023-08-01T10:41:39;19.90;99.90
54788;DHT22;59598;48.112;16.280;2023-08-01T10:44:15;19.80;99.90
54788;DHT22;59598;48.112;16.280;2023-08-01T10:46:58;19.80;99.90
54788;DHT22;59598;48.112;16.280;2023-08-01T10:52:22;19.80;99.90
54788;DHT22;59598;48.112;16.280;2023-08-01T10:55:04;19.70;99.90
54788;DHT22;59598;48.112;16.280;2023-08-01T10:57:50;19.70;99.90
54788;DHT22;59598;48.112;16.280;2023-08-01T11:00:25;19.80;99.90
54788;DHT22;59598;48.112;16.280;2023-08-01T11:03:02;19.70;99.90
54788;DHT22;59598;48.112;16.280;2023-08-01T11:09:03;19.60;99.90
54788;DHT22;59598;48.112;16.280;2023-08-01T11:11:51;19.50;99.90
54788;DHT22;59598;48.112;16.280;2023-08-01T11:14:28;19.20;99.90
54788;DHT22;59598;48.112;16.280;2023-08-01T11:17:00;19.20;99.90
54788;DHT22;59598;48.112;16.280;2023-08-01T11:19:33;19.20;99.90
54788;DHT22;59598;48.112;16.280;2023-08-01T11:22:09;19.30;99.90
54788;DHT22;59598;48.112;16.280;2023-08-01T11:24:49;19.30;99.90
54788;DHT22;59598;48.112;16.280;2023-08-01T11:27:24;19.20;99.90
54788;DHT22;59598;48.112;16.280;2023-08-01T11:29:56;19.20;99.90
54788;DHT22;59598;48.112;16.280;2023-08-01T11:32:33;19.00;99.90
54788;DHT22;59598;48.112;16.280;2023-08-01T11:35:17;18.90;99.90
54788;DHT22;59598;48.112;16.280;2023-08-01T11:37:55;18.70;99.90
54788;DHT22;59598;48.112;16.280;2023-08-01T11:40:27;18.50;99.90
54788;DHT22;59598;48.112;16.280;2023-08-01T11:42:58;18.40;99.90
54788;DHT22;59598;48.112;16.280;2023-08-01T11:45:33;18.10;99.90
54788;DHT22;59598;48.112;16.280;2023-08-01T11:48:04;18.10;99.90
54788;DHT22;59598;48.112;16.280;2023-08-01T11:50:38;18.20;99.90
54788;DHT22;59598;48.112;16.280;2023-08-01T11:53:20;18.50;99.90
54788;DHT22;59598;48.112;16.280;2023-08-01T11:55:54;18.90;99.90
54788;DHT22;59598;48.112;16.280;2023-08-01T11:58:30;19.20;99.90
54788;DHT22;59598;48.112;16.280;2023-08-01T12:01:11;19.50;99.90
54788;DHT22;59598;48.112;16.280;2023-08-01T12:03:50;19.50;99.90
54788;DHT22;59598;48.112;16.280;2023-08-01T12:06:23;19.60;99.90
54788;DHT22;59598;48.112;16.280;2023-08-01T12:09:11;19.60;99.90
54788;DHT22;59598;48.112;16.280;2023-08-01T12:11:44;19.60;99.90
54788;DHT22;59598;48.112;16.280;2023-08-01T12:14:19;19.40;99.90
54788;DHT22;59598;48.112;16.280;2023-08-01T12:16:50;19.20;99.90
54788;DHT22;59598;48.112;16.280;2023-08-01T12:19:21;19.00;99.90
54788;DHT22;59598;48.112;16.280;2023-08-01T12:21:53;18.90;99.90
54788;DHT22;59598;48.112;16.280;2023-08-01T12:24:24;18.80;99.90
54788;DHT22;59598;48.112;16.280;2023-08-01T12:26:56;18.90;99.90
54788;DHT22;59598;48.112;16.280;2023-08-01T12:29:30;19.10;99.90
54788;DHT22;59598;48.112;16.280;2023-08-01T12:32:05;19.40;99.90
54788;DHT22;59598;48.112;16.280;2023-08-01T12:34:38;19.70;99.90
54788;DHT22;59598;48.112;16.280;2023-08-01T12:37:09;19.80;99.90
54788;DHT22;59598;48.112;16.280;2023-08-01T12:39:40;19.70;99.90
54788;DHT22;59598;48.112;16.280;2023-08-01T12:42:12;19.70;99.90
54788;DHT22;59598;48.112;16.280;2023-08-01T12:44:46;19.50;99.90
54788;DHT22;59598;48.112;16.280;2023-08-01T12:47:22;19.20;99.90
54788;DHT22;59598;48.112;16.280;2023-08-01T12:49:55;18.90;99.90
54788;DHT22;59598;48.112;16.280;2023-08-01T12:52:28;18.60;99.90
54788;DHT22;59598;48.112;16.280;2023-08-01T12:55:10;18.60;99.90
54788;DHT22;59598;48.112;16.280;2023-08-01T12:57:42;18.70;99.90
54788;DHT22;59598;48.112;16.280;2023-08-01T13:00:15;18.60;99.90
54788;DHT22;59598;48.112;16.280;2023-08-01T13:02:47;18.60;99.90
54788;DHT22;59598;48.112;16.280;2023-08-01T13:05:22;18.60;99.90
54788;DHT22;59598;48.112;16.280;2023-08-01T13:07:54;18.60;99.90
54788;DHT22;59598;48.112;16.280;2023-08-01T13:10:25;18.50;99.90
54788;DHT22;59598;48.112;16.280;2023-08-01T13:12:58;18.50;99.90
54788;DHT22;59598;48.112;16.280;2023-08-01T13:15:34;18.40;99.90
54788;DHT22;59598;48.112;16.280;2023-08-01T13:18:09;18.30;99.90
54788;DHT22;59598;48.112;16.280;2023-08-01T13:20:44;18.30;99.90
54788;DHT22;59598;48.112;16.280;2023-08-01T13:23:20;18.30;99.90
54788;DHT22;59598;48.112;16.280;2023-08-01T13:25:52;18.00;99.90
54788;DHT22;59598;48.112;16.280;2023-08-01T13:28:24;18.00;99.90
54788;DHT22;59598;48.112;16.280;2023-08-01T13:30:55;18.10;99.90
54788;DHT22;59598;48.112;16.280;2023-08-01T13:33:30;18.10;99.90
54788;DHT22;59598;48.112;16.280;2023-08-01T13:36:02;18.10;99.90
54788;DHT22;59598;48.112;16.280;2023-08-01T13:38:33;18.10;99.90
54788;DHT22;59598;48.112;16.280;2023-08-01T13:41:05;18.00;99.90
54788;DHT22;59598;48.112;16.280;2023-08-01T13:43:39;18.00;99.90
54788;DHT22;59598;48.112;16.280;2023-08-01T13:46:16;18.10;99.90
54788;DHT22;59598;48.112;16.280;2023-08-01T13:48:48;18.20;99.90
54788;DHT22;59598;48.112;16.280;2023-08-01T13:51:21;18.10;99.90
54788;DHT22;59598;48.112;16.280;2023-08-01T13:53:55;18.00;99.90
54788;DHT22;59598;48.112;16.280;2023-08-01T13:56:30;18.00;99.90
54788;DHT22;59598;48.112;16.280;2023-08-01T13:59:04;18.00;99.90
54788;DHT22;59598;48.112;16.280;2023-08-01T14:01:35;18.10;99.90
54788;DHT22;59598;48.112;16.280;2023-08-01T14:04:09;17.90;99.90
54788;DHT22;59598;48.112;16.280;2023-08-01T14:06:42;17.80;99.90
54788;DHT22;59598;48.112;16.280;2023-08-01T14:09:14;17.80;99.90
54788;DHT22;59598;48.112;16.280;2023-08-01T14:11:51;17.90;99.90
54788;DHT22;59598;48.112;16.280;2023-08-01T14:14:28;17.90;99.90
54788;DHT22;59598;48.112;16.280;2023-08-01T14:17:13;17.90;99.90
54788;DHT22;59598;48.112;16.280;2023-08-01T14:19:51;17.90;99.90
54788;DHT22;59598;48.112;16.280;2023-08-01T14:22:29;18.00;99.90
54788;DHT22;59598;48.112;16.280;2023-08-01T14:25:04;17.90;99.90
54788;DHT22;59598;48.112;16.280;2023-08-01T14:27:38;17.80;99.90
54788;DHT22;59598;48.112;16.280;2023-08-01T14:30:13;17.70;99.90
54788;DHT22;59598;48.112;16.280;2023-08-01T14:32:46;17.70;99.90
54788;DHT22;59598;48.112;16.280;2023-08-01T14:35:22;17.60;99.90
54788;DHT22;59598;48.112;16.280;2023-08-01T14:38:18;17.60;99.90
54788;DHT22;59598;48.112;16.280;2023-08-01T14:41:02;17.60;99.90
54788;DHT22;59598;48.112;16.280;2023-08-01T14:43:53;17.60;99.90
54788;DHT22;59598;48.112;16.280;2023-08-01T14:46:26;17.60;99.90
54788;DHT22;59598;48.112;16.280;2023-08-01T14:49:02;17.50;99.90
54788;DHT22;59598;48.112;16.280;2023-08-01T14:51:36;17.50;99.90
54788;DHT22;59598;48.112;16.280;2023-08-01T14:54:16;17.50;99.90
54788;DHT22;59598;48.112;16.280;2023-08-01T14:57:16;17.50;99.90
54788;DHT22;59598;48.112;16.280;2023-08-01T14:59:49;17.50;99.90
54788;DHT22;59598;48.112;16.280;2023-08-01T15:02:25;17.40;99.90
54788;DHT22;59598;48.112;16.280;2023-08-01T15:05:11;17.40;99.90
54788;DHT22;59598;48.112;16.280;2023-08-01T15:07:51;17.40;99.90
54788;DHT22;59598;48.112;16.280;2023-08-01T15:10:56;17.40;99.90
54788;DHT22;59598;48.112;16.280;2023-08-01T15:14:28;17.40;99.90
54788;DHT22;59598;48.112;16.280;2023-08-01T15:17:51;17.30;99.90
54788;DHT22;59598;48.112;16.280;2023-08-01T15:24:34;17.40;99.90
54788;DHT22;59598;48.112;16.280;2023-08-01T15:27:07;17.50;99.90
54788;DHT22;59598;48.112;16.280;2023-08-01T15:30:01;17.50;99.90
54788;DHT22;59598;48.112;16.280;2023-08-01T15:32:50;17.50;99.90
54788;DHT22;59598;48.112;16.280;2023-08-01T15:35:29;17.60;99.90
54788;DHT22;59598;48.112;16.280;2023-08-01T15:38:01;17.60;99.90
54788;DHT22;59598;48.112;16.280;2023-08-01T15:40:33;17.60;99.90
54788;DHT22;59598;48.112;16.280;2023-08-01T15:43:07;17.60;99.90
54788;DHT22;59598;48.112;16.280;2023-08-01T15:45:38;17.80;99.90
54788;DHT22;59598;48.112;16.280;2023-08-01T15:48:12;17.70;99.90
54788;DHT22;59598;48.112;16.280;2023-08-01T15:50:43;17.80;99.90
54788;DHT22;59598;48.112;16.280;2023-08-01T15:53:16;17.70;99.90
54788;DHT22;59598;48.112;16.280;2023-08-01T15:55:59;17.80;99.90
54788;DHT22;59598;48.112;16.280;2023-08-01T15:58:32;17.70;99.90
54788;DHT22;59598;48.112;16.280;2023-08-01T16:01:05;17.60;99.90
54788;DHT22;59598;48.112;16.280;2023-08-01T16:03:43;17.60;99.90
54788;DHT22;59598;48.112;16.280;2023-08-01T16:06:15;17.60;99.90
54788;DHT22;59598;48.112;16.280;2023-08-01T16:08:49;17.60;99.90
54788;DHT22;59598;48.112;16.280;2023-08-01T16:11:21;17.60;99.90
54788;DHT22;59598;48.112;16.280;2023-08-01T16:13:52;17.50;99.90
54788;DHT22;59598;48.112;16.280;2023-08-01T16:16:25;17.50;99.90
54788;DHT22;59598;48.112;16.280;2023-08-01T16:18:57;17.40;99.90
54788;DHT22;59598;48.112;16.280;2023-08-01T16:21:28;17.50;99.90
54788;DHT22;59598;48.112;16.280;2023-08-01T16:23:59;17.50;99.90
54788;DHT22;59598;48.112;16.280;2023-08-01T16:26:32;17.50;99.90
54788;DHT22;59598;48.112;16.280;2023-08-01T16:29:05;17.40;99.90
54788;DHT22;59598;48.112;16.280;2023-08-01T16:31:36;17.50;99.90
54788;DHT22;59598;48.112;16.280;2023-08-01T16:34:10;17.50;99.90
54788;DHT22;59598;48.112;16.280;2023-08-01T16:36:41;17.40;99.90
54788;DHT22;59598;48.112;16.280;2023-08-01T16:39:21;17.40;99.90